< Typhoon 196429 1964 Season Typhoon 196431 >
Typhoon 196430 (KATE)
General InformationTrack Information on Google Maps || Disaster Info.ResourceGoogle EarthGE AnimationAtom FeedGeoJSON
Detalied Best Track (Time Zone = UTC)
Year Month Day Hour Lat. Long. Pressure (hPa) Wind (kt) Class Image Chart
1964 11 10 18 13.5 117.0 1008 0 2 -- Chart
1964 11 11 00 13.5 116.4 1008 0 2 -- Chart
1964 11 11 06 13.4 115.7 1006 0 2 -- Chart
1964 11 11 12 12.9 115.7 1008 0 2 -- Chart
1964 11 11 18 12.5 115.7 1006 0 2 -- Chart
1964 11 12 00 12.5 115.0 1007 0 2 -- Chart
1964 11 12 06 11.5 115.3 1005 0 2 -- Chart
1964 11 12 12 10.4 115.2 1006 0 2 -- Chart
1964 11 12 18 10.0 113.5 1004 0 2 -- Chart
1964 11 13 00 10.0 113.0 1004 0 2 -- Chart
1964 11 13 06 10.6 113.0 1004 0 2 -- Chart
1964 11 13 12 11.0 113.3 1004 0 2 -- Chart
1964 11 13 18 11.0 114.0 1004 0 2 -- Chart
1964 11 14 00 10.5 113.5 1004 0 2 -- Chart
1964 11 14 06 10.4 113.4 1002 0 2 -- Chart
1964 11 14 12 10.3 113.3 1002 0 2 -- Chart
1964 11 14 18 10.2 113.3 998 0 2 -- Chart
1964 11 15 00 10.2 113.0 996 0 9 -- Chart
1964 11 15 06 10.3 112.2 994 0 9 -- Chart
1964 11 15 12 10.6 111.7 994 0 9 -- Chart
1964 11 15 18 10.8 111.1 992 0 9 -- Chart
1964 11 16 00 11.1 110.5 990 0 9 -- Chart
1964 11 16 06 11.5 109.9 990 0 9 -- Chart
1964 11 16 12 11.8 108.8 998 0 9 -- Chart
1964 11 16 18 11.9 107.5 1004 0 2 -- Chart
1964 11 17 00 12.5 106.0 1010 0 2 -- Chart
Japan Meteorological Agency Best Track Data | Correction Date : 1989-06-01
< Typhoon 196429 1964 Season Typhoon 196431 >

Help